createdAt,value
2019-02-21T00:02:16.238Z,102102.41
2019-02-21T00:04:45.002Z,102098.36
2019-02-21T00:07:13.509Z,102092.23
2019-02-21T00:09:41.960Z,102092.23
2019-02-21T00:12:10.415Z,102093.85
2019-02-21T00:14:38.905Z,102092.06
2019-02-21T00:17:07.386Z,102086.42
2019-02-21T00:19:35.849Z,102087.39
2019-02-21T00:22:04.346Z,102090.02
2019-02-21T00:24:32.800Z,102088.73
2019-02-21T00:27:01.264Z,102085.84
2019-02-21T00:29:29.772Z,102085.92
2019-02-21T00:31:58.221Z,102081.22
2019-02-21T00:34:26.693Z,102088.56
2019-02-21T00:36:55.176Z,102083.81
2019-02-21T00:39:23.628Z,102085.59
2019-02-21T00:41:52.087Z,102081.22
2019-02-21T00:44:20.583Z,102084.22
2019-02-21T00:46:49.054Z,102086.34
2019-02-21T00:49:17.523Z,102088.52
2019-02-21T00:51:46.040Z,102082.34
2019-02-21T00:54:14.506Z,102079.63
2019-02-21T00:56:42.966Z,102080.38
2019-02-21T00:59:11.455Z,102078.59
2019-02-21T01:01:39.911Z,102072.49
2019-02-21T01:04:08.367Z,102075.41
2019-02-21T01:06:38.000Z,102080.08
2019-02-21T01:09:06.468Z,102081.73
2019-02-21T01:11:34.935Z,102082.53
2019-02-21T01:14:03.449Z,102082.07
2019-02-21T01:16:31.898Z,102069.06
2019-02-21T01:19:00.371Z,102065.19
2019-02-21T01:21:28.880Z,102066.14
2019-02-21T01:23:57.339Z,102060.89
2019-02-21T01:26:25.804Z,102063.06
2019-02-21T01:28:54.348Z,102056.22
2019-02-21T01:31:22.816Z,102057.02
2019-02-21T01:33:51.299Z,102056.05
2019-02-21T01:36:19.807Z,102059.88
2019-02-21T01:38:48.260Z,102055.88
2019-02-21T01:41:16.809Z,102051.91
2019-02-21T01:43:45.310Z,102052.38
2019-02-21T01:46:13.785Z,102052.00
2019-02-21T01:48:42.234Z,102046.47
2019-02-21T01:51:10.746Z,102044.42
2019-02-21T01:53:39.203Z,102046.22
2019-02-21T01:56:07.663Z,102043.30
2019-02-21T01:58:36.178Z,102038.67
2019-02-21T02:01:08.538Z,102041.80
2019-02-21T02:03:34.899Z,102035.80
2019-02-21T02:06:03.415Z,102039.77
2019-02-21T02:08:32.388Z,102039.81
2019-02-21T02:11:00.849Z,102042.89
2019-02-21T02:13:29.347Z,102045.94
2019-02-21T02:15:57.813Z,102046.44
2019-02-21T02:18:26.266Z,102045.94
2019-02-21T02:20:54.766Z,102052.48
2019-02-21T02:23:23.245Z,102047.78
2019-02-21T02:25:51.694Z,102046.02
2019-02-21T02:28:20.208Z,102048.19
2019-02-21T02:30:48.669Z,102046.06
2019-02-21T02:33:17.130Z,102046.98
2019-02-21T02:35:45.659Z,102043.98
2019-02-21T02:38:14.118Z,102048.36
2019-02-21T02:40:42.598Z,102046.15
2019-02-21T02:43:11.212Z,102048.36
2019-02-21T02:45:39.658Z,102045.36
2019-02-21T02:48:08.115Z,102050.94
2019-02-21T02:50:36.632Z,102050.14
2019-02-21T02:53:05.309Z,102051.44
2019-02-21T02:55:33.778Z,102048.44
2019-02-21T02:58:02.291Z,102046.31
2019-02-21T03:00:30.756Z,102051.98
2019-02-21T03:02:59.236Z,102050.73
2019-02-21T03:05:27.744Z,102048.56
2019-02-21T03:07:56.207Z,102052.53
2019-02-21T03:10:25.737Z,102047.73
2019-02-21T03:12:54.252Z,102048.64
2019-02-21T03:15:22.720Z,102050.87
2019-02-21T03:17:51.181Z,102046.61
2019-02-21T03:20:19.691Z,102056.53
2019-02-21T03:22:48.157Z,102056.20
2019-02-21T03:25:16.620Z,102055.32
2019-02-21T03:27:45.106Z,102056.20
2019-02-21T03:30:13.708Z,102054.08
2019-02-21T03:32:42.197Z,102048.91
2019-02-21T03:35:10.795Z,102045.11
2019-02-21T03:37:39.239Z,102043.39
2019-02-21T03:40:09.594Z,102045.98
2019-02-21T03:42:38.163Z,102046.86
2019-02-21T03:45:09.850Z,102042.56
2019-02-21T03:47:38.301Z,102041.77
2019-02-21T03:50:09.759Z,102036.09
2019-02-21T03:52:38.204Z,102038.30
2019-02-21T03:55:08.111Z,102039.52
2019-02-21T03:57:36.676Z,102033.52
2019-02-21T04:00:07.868Z,102038.69
2019-02-21T04:02:36.332Z,102038.30
2019-02-21T04:05:06.174Z,102037.39
2019-02-21T04:07:34.646Z,102033.93
2019-02-21T04:10:03.994Z,102037.39
2019-02-21T04:12:32.612Z,102042.56
2019-02-21T04:15:01.079Z,102042.52
2019-02-21T04:17:29.553Z,102042.10
2019-02-21T04:19:58.053Z,102041.23
2019-02-21T04:22:26.530Z,102041.56
2019-02-21T04:24:54.986Z,102038.52
2019-02-21T04:27:23.593Z,102042.77
2019-02-21T04:29:52.058Z,102044.40
2019-02-21T04:32:20.524Z,102040.14
2019-02-21T04:34:49.021Z,102041.77
2019-02-21T04:37:20.188Z,102040.89
2019-02-21T04:39:48.641Z,102047.36
2019-02-21T04:42:17.167Z,102042.56
2019-02-21T04:44:45.618Z,102047.69
2019-02-21T04:47:14.096Z,102048.44
2019-02-21T04:49:42.577Z,102047.86
2019-02-21T04:52:11.036Z,102048.66
2019-02-21T04:54:39.500Z,102052.90
2019-02-21T04:57:08.661Z,102051.94
2019-02-21T04:59:39.441Z,102053.48
2019-02-21T05:02:07.898Z,102052.06
2019-02-21T05:04:36.409Z,102046.02
2019-02-21T05:07:04.875Z,102044.50
2019-02-21T05:09:33.348Z,102045.80
2019-02-21T05:12:01.882Z,102041.38
2019-02-21T05:14:30.606Z,102042.20
2019-02-21T05:17:00.667Z,102036.95
2019-02-21T05:19:29.353Z,102033.36
2019-02-21T05:21:57.821Z,102035.11
2019-02-21T05:24:26.292Z,102020.77
2019-02-21T05:26:56.419Z,102031.52
2019-02-21T05:29:24.896Z,102021.92
2019-02-21T05:31:57.653Z,102024.89
2019-02-21T05:34:43.034Z,102023.55
2019-02-21T05:37:31.181Z,102025.17
2019-02-21T05:40:10.043Z,102021.30
2019-02-21T05:42:42.921Z,102019.55
2019-02-21T05:45:15.501Z,102021.22
2019-02-21T05:47:48.057Z,102019.46
2019-02-21T05:50:30.057Z,102020.67
2019-02-21T05:53:16.056Z,102018.91
2019-02-21T05:56:02.325Z,102016.80
2019-02-21T05:58:35.085Z,102013.33
2019-02-21T06:01:07.932Z,102012.87
2019-02-21T06:03:44.075Z,102007.62
2019-02-21T06:06:17.124Z,102012.32
2019-02-21T06:08:51.710Z,102002.73
2019-02-21T06:11:21.829Z,102012.56
2019-02-21T06:13:53.738Z,102007.40
2019-02-21T06:16:33.130Z,102006.11
2019-02-21T06:19:10.713Z,102008.78
2019-02-21T06:21:47.854Z,102009.66
2019-02-21T06:24:20.636Z,102005.36
2019-02-21T06:26:50.789Z,102010.95
2019-02-21T06:29:22.563Z,102010.40
2019-02-21T06:31:51.221Z,102010.81
2019-02-21T06:34:22.839Z,102014.69
2019-02-21T06:36:51.385Z,102011.22
2019-02-21T06:39:19.850Z,102015.10
2019-02-21T06:41:58.699Z,102010.68
2019-02-21T06:44:18.563Z,102009.77
2019-02-21T06:46:47.042Z,102014.94
2019-02-21T06:49:15.555Z,102016.64
2019-02-21T06:51:44.033Z,102017.05
2019-02-21T06:54:12.498Z,102020.05
2019-02-21T06:56:41.054Z,102019.97
2019-02-21T06:59:13.534Z,102020.37
2019-02-21T07:01:40.796Z,102022.09
2019-02-21T07:04:09.284Z,102018.62
2019-02-21T07:06:39.294Z,102023.37
2019-02-21T07:09:07.911Z,102028.55
2019-02-21T07:11:36.405Z,102021.20
2019-02-21T07:14:04.877Z,102022.41
2019-02-21T07:16:33.329Z,102028.55
2019-02-21T07:19:02.320Z,102020.80
2019-02-21T07:21:30.799Z,102026.42
2019-02-21T07:24:07.918Z,102023.92
2019-02-21T07:26:36.419Z,102028.77
2019-02-21T07:29:04.877Z,102029.69
2019-02-21T07:31:33.332Z,102022.44
2019-02-21T07:34:02.081Z,102029.45
2019-02-21T07:36:30.548Z,102027.27
2019-02-21T07:39:13.837Z,102029.03
2019-02-21T07:41:29.221Z,102030.78
2019-02-21T07:43:57.684Z,102032.50
2019-02-21T07:46:26.417Z,102030.41
2019-02-21T07:48:54.918Z,102036.50
2019-02-21T07:51:23.379Z,102037.41
2019-02-21T07:53:51.835Z,102043.13
2019-02-21T07:56:20.337Z,102047.88
2019-02-21T07:58:48.790Z,102046.17
2019-02-21T08:01:17.662Z,101988.27
2019-02-21T08:03:48.551Z,102048.02
2019-02-21T08:06:16.431Z,102047.27
2019-02-21T08:08:45.184Z,102055.11
2019-02-21T08:11:13.761Z,102051.37
2019-02-21T08:13:42.290Z,102054.08
2019-02-21T08:16:12.475Z,102055.38
2019-02-21T08:18:41.126Z,102060.22
2019-02-21T08:21:10.697Z,102056.88
2019-02-21T08:23:49.665Z,102061.64
2019-02-21T08:26:09.441Z,102061.64
2019-02-21T08:28:37.922Z,102055.17
2019-02-21T08:31:06.449Z,102056.88
2019-02-21T08:33:42.152Z,102050.50
2019-02-21T08:36:10.613Z,102042.34
2019-02-21T08:38:39.076Z,102043.76
2019-02-21T08:41:07.576Z,102042.22
2019-02-21T08:43:37.284Z,102044.59
2019-02-21T08:46:05.909Z,102042.61
2019-02-21T08:48:34.439Z,102043.73
2019-02-21T08:51:02.940Z,102035.72
2019-02-21T08:53:31.414Z,102031.97
2019-02-21T08:56:00.056Z,102030.75
2019-02-21T08:58:28.524Z,102029.45
2019-02-21T09:00:57.008Z,102040.69
2019-02-21T09:03:25.517Z,102037.27
2019-02-21T09:05:53.969Z,102038.56
2019-02-21T09:08:32.762Z,102039.44
2019-02-21T09:10:52.658Z,102044.77
2019-02-21T09:13:23.740Z,102036.64
2019-02-21T09:15:51.512Z,102038.34
2019-02-21T09:18:20.030Z,102031.96
2019-02-21T09:20:48.491Z,102031.21
2019-02-21T09:23:17.090Z,102028.67
2019-02-21T09:25:45.584Z,102028.62
2019-02-21T09:28:15.789Z,102017.45
2019-02-21T09:30:44.231Z,102020.16
2019-02-21T09:33:17.420Z,102015.53
2019-02-21T09:35:42.908Z,102020.02
2019-02-21T09:38:13.156Z,102017.10
2019-02-21T09:40:42.799Z,102019.47
2019-02-21T09:43:11.536Z,102014.92
2019-02-21T09:45:42.190Z,101999.09
2019-02-21T09:48:12.015Z,101997.17
2019-02-21T09:50:40.388Z,101992.60
2019-02-21T09:53:08.838Z,101983.32
2019-02-21T09:55:37.395Z,101991.41
2019-02-21T09:58:05.869Z,101987.37
2019-02-21T10:00:35.961Z,101984.17
2019-02-21T10:03:04.614Z,101978.04
2019-02-21T10:05:33.072Z,101983.22
2019-02-21T10:08:01.552Z,101967.70
2019-02-21T10:10:30.053Z,101965.28
2019-02-21T10:12:58.519Z,101961.02
2019-02-21T10:15:26.992Z,101968.06
2019-02-21T10:17:55.495Z,101961.92
2019-02-21T10:20:23.965Z,101962.63
2019-02-21T10:22:52.429Z,101970.33
2019-02-21T10:25:24.974Z,101977.57
2019-02-21T10:27:53.439Z,101981.27
2019-02-21T10:30:23.360Z,101998.47
2019-02-21T10:32:51.857Z,101985.25
2019-02-21T10:35:20.398Z,101989.66
2019-02-21T10:37:48.888Z,101994.59
2019-02-21T10:40:17.989Z,102002.93
2019-02-21T10:42:46.468Z,101998.33
2019-02-21T10:45:16.762Z,101996.77
2019-02-21T10:47:45.351Z,102000.50
2019-02-21T10:50:17.001Z,101997.87
2019-02-21T10:52:45.470Z,102004.28
2019-02-21T10:55:14.159Z,101996.80
2019-02-21T10:57:45.189Z,101992.37
2019-02-21T11:00:18.690Z,101984.25
2019-02-21T11:02:47.160Z,101983.98
2019-02-21T11:05:15.645Z,101980.92
2019-02-21T11:07:44.143Z,101974.00
2019-02-21T11:10:19.219Z,101969.59
2019-02-21T11:12:47.871Z,101979.53
2019-02-21T11:15:21.368Z,101977.81
2019-02-21T11:17:49.844Z,101982.59
2019-02-21T11:20:19.248Z,101977.36
2019-02-21T11:22:47.760Z,101988.56
2019-02-21T11:25:16.215Z,101976.84
2019-02-21T11:27:45.714Z,101985.16
2019-02-21T11:30:16.529Z,101988.63
2019-02-21T11:32:45.011Z,101982.59
2019-02-21T11:35:13.951Z,101967.88
2019-02-21T11:37:46.604Z,101963.59
2019-02-21T11:40:17.156Z,101964.98
2019-02-21T11:42:46.355Z,101962.41
2019-02-21T11:45:18.360Z,101965.00
2019-02-21T11:47:48.369Z,101958.48
2019-02-21T11:50:18.289Z,101943.89
2019-02-21T11:52:46.859Z,101957.70
2019-02-21T11:55:23.615Z,101957.27
2019-02-21T11:57:52.100Z,101957.61
2019-02-21T12:00:23.280Z,101961.95
2019-02-21T12:02:51.778Z,101958.00
2019-02-21T12:05:30.370Z,101961.89
2019-02-21T12:07:50.553Z,101965.77
2019-02-21T12:10:19.093Z,101965.70
2019-02-21T12:12:47.579Z,101957.91
2019-02-21T12:15:16.707Z,101964.83
2019-02-21T12:17:45.182Z,101962.16
2019-02-21T12:20:15.434Z,101963.47
2019-02-21T12:22:43.960Z,101965.25
2019-02-21T12:25:17.422Z,101961.29
2019-02-21T12:27:45.890Z,101965.19
2019-02-21T12:30:17.365Z,101964.38
2019-02-21T12:32:45.961Z,101963.08
2019-02-21T12:35:14.598Z,101967.36
2019-02-21T12:37:43.109Z,101963.44
2019-02-21T12:40:14.295Z,101966.82
2019-02-21T12:42:42.733Z,101969.36
2019-02-21T12:45:16.740Z,101975.27
2019-02-21T12:47:50.785Z,101970.84
2019-02-21T12:50:15.542Z,101971.98
2019-02-21T12:52:44.099Z,101980.88
2019-02-21T12:55:12.760Z,101983.27
2019-02-21T12:57:41.231Z,101985.67
2019-02-21T13:00:12.510Z,101984.66
2019-02-21T13:02:41.000Z,101977.20
2019-02-21T13:05:09.480Z,101981.88
2019-02-21T13:07:38.021Z,101989.05
2019-02-21T13:10:12.095Z,101974.12
2019-02-21T13:12:40.583Z,101985.70
2019-02-21T13:15:11.528Z,101986.03
2019-02-21T13:17:40.032Z,101987.20
2019-02-21T13:20:11.288Z,101986.67
2019-02-21T13:22:41.357Z,101994.36
2019-02-21T13:25:15.165Z,101994.33
2019-02-21T13:27:43.672Z,101996.86
2019-02-21T13:30:16.733Z,102003.27
2019-02-21T13:32:45.932Z,102003.66
2019-02-21T13:35:14.554Z,102005.70
2019-02-21T13:37:43.068Z,102004.38
2019-02-21T13:40:14.480Z,102006.89
2019-02-21T13:42:42.958Z,102009.45
2019-02-21T13:45:13.498Z,102011.56
2019-02-21T13:47:41.954Z,102007.67
2019-02-21T13:50:13.235Z,102009.91
2019-02-21T13:52:41.747Z,102008.61
2019-02-21T13:55:10.305Z,102012.95
2019-02-21T13:57:38.788Z,102015.63
2019-02-21T14:00:10.557Z,102020.39
2019-02-21T14:02:39.076Z,102024.77
2019-02-21T14:05:07.810Z,102026.94
2019-02-21T14:07:37.371Z,102024.77
2019-02-21T14:10:11.296Z,102028.24
2019-02-21T14:12:39.943Z,102025.23
2019-02-21T14:15:11.629Z,102024.41
2019-02-21T14:17:40.098Z,102027.02
2019-02-21T14:20:09.244Z,102032.66
2019-02-21T14:22:37.746Z,102026.17
2019-02-21T14:25:08.960Z,102028.31
2019-02-21T14:27:37.433Z,102026.10
2019-02-21T14:30:09.071Z,102029.95
2019-02-21T14:32:37.542Z,102028.17
2019-02-21T14:35:09.158Z,102030.73
2019-02-21T14:37:37.694Z,102030.20
2019-02-21T14:40:09.099Z,102033.61
2019-02-21T14:42:37.565Z,102034.80
2019-02-21T14:45:12.152Z,102031.27
2019-02-21T14:47:39.772Z,102032.56
2019-02-21T14:50:10.477Z,102025.09
2019-02-21T14:52:38.976Z,102022.50
2019-02-21T14:55:13.737Z,102015.08
2019-02-21T14:57:42.230Z,102019.38
2019-02-21T15:00:19.259Z,102010.63
2019-02-21T15:02:47.723Z,102011.50
2019-02-21T15:05:16.187Z,102009.81
2019-02-21T15:07:44.722Z,102002.95
2019-02-21T15:10:13.357Z,101999.52
2019-02-21T15:12:43.445Z,101999.52
2019-02-21T15:15:27.702Z,102008.23
2019-02-21T15:18:06.964Z,102006.06
2019-02-21T15:20:36.282Z,102012.02
2019-02-21T15:22:56.871Z,102013.32
2019-02-21T15:25:25.907Z,102011.50
2019-02-21T15:27:54.554Z,102011.92
2019-02-21T15:30:25.998Z,102018.75
2019-02-21T15:32:54.587Z,102024.08
2019-02-21T15:35:23.058Z,102022.40
2019-02-21T15:37:51.925Z,102010.17
2019-02-21T15:40:20.488Z,102009.16
2019-02-21T15:42:49.062Z,102008.20
2019-02-21T15:45:26.502Z,102006.81
2019-02-21T15:47:55.024Z,102005.41
2019-02-21T15:50:26.222Z,102003.59
2019-02-21T15:52:56.356Z,102005.66
2019-02-21T15:55:24.824Z,102013.78
2019-02-21T15:58:03.285Z,102010.73
2019-02-21T16:00:24.567Z,102015.84
2019-02-21T16:02:53.037Z,102023.55
2019-02-21T16:05:21.500Z,102029.16
2019-02-21T16:07:49.990Z,102030.45
2019-02-21T16:10:21.646Z,102025.23
2019-02-21T16:12:50.962Z,102033.81
2019-02-21T16:15:19.749Z,102029.47
2019-02-21T16:17:48.262Z,102033.70
2019-02-21T16:20:18.333Z,102036.22
2019-02-21T16:22:46.829Z,102034.89
2019-02-21T16:25:18.068Z,102034.89
2019-02-21T16:27:46.525Z,102036.58
2019-02-21T16:30:15.307Z,102034.36
2019-02-21T16:32:43.800Z,102043.47
2019-02-21T16:35:13.899Z,102038.25
2019-02-21T16:37:42.400Z,102041.23
2019-02-21T16:40:17.076Z,102040.70
2019-02-21T16:42:45.545Z,102041.53
2019-02-21T16:45:15.972Z,102039.78
2019-02-21T16:47:44.519Z,102040.94
2019-02-21T16:50:14.324Z,102030.53
2019-02-21T16:52:43.013Z,102039.53
2019-02-21T16:55:19.345Z,102039.95
2019-02-21T16:57:47.848Z,102043.37
2019-02-21T17:00:20.428Z,102045.05
2019-02-21T17:02:49.041Z,102048.41
2019-02-21T17:05:17.646Z,102056.19
2019-02-21T17:07:46.096Z,102060.42
2019-02-21T17:10:15.814Z,102059.12
2019-02-21T17:12:44.312Z,102063.43
2019-02-21T17:15:14.899Z,102068.57
2019-02-21T17:17:43.499Z,102064.27
2019-02-21T17:20:17.360Z,102068.16
2019-02-21T17:22:45.816Z,102072.84
2019-02-21T17:25:15.421Z,102076.69
2019-02-21T17:27:47.754Z,102076.61
2019-02-21T17:30:17.355Z,102073.07
2019-02-21T17:32:45.876Z,102076.92
2019-02-21T17:35:14.798Z,102074.21
2019-02-21T17:37:43.327Z,102074.55
2019-02-21T17:40:14.749Z,102080.54
2019-02-21T17:42:43.596Z,102080.54
2019-02-21T17:45:13.384Z,102074.83
2019-02-21T17:47:41.882Z,102085.19
2019-02-21T17:50:12.422Z,102085.61
2019-02-21T17:52:40.873Z,102082.14
2019-02-21T17:55:10.899Z,102080.72
2019-02-21T17:57:39.457Z,102079.84
2019-02-21T18:00:11.099Z,102082.82
2019-02-21T18:02:39.546Z,102085.83
2019-02-21T18:05:09.689Z,102081.48
2019-02-21T18:07:38.152Z,102084.95
2019-02-21T18:10:10.046Z,102083.23
2019-02-21T18:12:38.565Z,102079.77
2019-02-21T18:15:09.200Z,102082.82
2019-02-21T18:17:37.677Z,102082.82
2019-02-21T18:20:08.812Z,102075.89
2019-02-21T18:22:37.502Z,102079.28
2019-02-21T18:25:11.995Z,102080.11
2019-02-21T18:27:40.496Z,102086.17
2019-02-21T18:30:16.794Z,102080.53
2019-02-21T18:32:45.260Z,102083.54
2019-02-21T18:35:13.857Z,102086.93
2019-02-21T18:37:47.494Z,102089.52
2019-02-21T18:40:20.633Z,102084.34
2019-02-21T18:42:48.247Z,102087.27
2019-02-21T18:45:17.722Z,102090.70
2019-02-21T18:47:46.240Z,102091.53
2019-02-21T18:50:15.167Z,102105.78
2019-02-21T18:52:43.730Z,102105.23
2019-02-21T18:55:12.419Z,102108.70
2019-02-21T18:57:40.876Z,102108.22
2019-02-21T19:00:14.765Z,102106.04
2019-02-21T19:02:43.284Z,102109.92
2019-02-21T19:05:11.730Z,102105.58
2019-02-21T19:07:40.186Z,102108.97
2019-02-21T19:10:20.772Z,102111.56
2019-02-21T19:12:49.231Z,102109.34
2019-02-21T19:15:21.391Z,102113.16
2019-02-21T19:17:49.961Z,102109.61
2019-02-21T19:20:20.392Z,102112.69
2019-02-21T19:22:48.927Z,102111.40
2019-02-21T19:25:17.427Z,102112.20
2019-02-21T19:27:45.888Z,102112.61
2019-02-21T19:30:17.527Z,102110.02
2019-02-21T19:32:46.037Z,102116.91
2019-02-21T19:35:14.509Z,102107.36
2019-02-21T19:37:47.731Z,102111.73
2019-02-21T19:40:16.419Z,102111.24
2019-02-21T19:42:44.885Z,102111.66
2019-02-21T19:45:13.341Z,102112.95
2019-02-21T19:47:42.024Z,102115.95
2019-02-21T19:50:10.564Z,102118.47
2019-02-21T19:52:39.025Z,102120.19
2019-02-21T19:55:09.680Z,102117.17
2019-02-21T19:57:38.130Z,102116.72
2019-02-21T20:00:16.415Z,102121.48
2019-02-21T20:02:44.881Z,102123.11
2019-02-21T20:05:13.338Z,102129.13
2019-02-21T20:07:41.819Z,102134.77
2019-02-21T20:10:10.343Z,102133.01
2019-02-21T20:12:47.898Z,102139.89
2019-02-21T20:15:16.511Z,102148.46
2019-02-21T20:17:44.973Z,102138.06
2019-02-21T20:20:21.872Z,102144.92
2019-02-21T20:22:50.336Z,102149.22
2019-02-21T20:25:18.799Z,102148.34
2019-02-21T20:27:47.467Z,102159.57
2019-02-21T20:30:17.191Z,102157.81
2019-02-21T20:32:45.659Z,102166.38
2019-02-21T20:35:14.168Z,102169.47
2019-02-21T20:37:42.665Z,102179.74
2019-02-21T20:40:12.272Z,102181.91
2019-02-21T20:42:41.594Z,102191.89
2019-02-21T20:45:13.924Z,102191.93
2019-02-21T20:47:42.377Z,102195.81
2019-02-21T20:50:12.476Z,102201.83
2019-02-21T20:52:43.871Z,102206.92
2019-02-21T20:55:12.520Z,102206.51
2019-02-21T20:57:41.063Z,102197.06
2019-02-21T21:00:14.872Z,102197.94
2019-02-21T21:02:43.473Z,102194.48
2019-02-21T21:05:12.060Z,102207.75
2019-02-21T21:07:40.509Z,102208.55
2019-02-21T21:10:16.911Z,102215.02
2019-02-21T21:12:45.440Z,102217.56
2019-02-21T21:15:14.747Z,102217.48
2019-02-21T21:17:43.314Z,102227.42
2019-02-21T21:20:16.979Z,102226.50
2019-02-21T21:22:43.805Z,102233.77
2019-02-21T21:25:15.806Z,102217.14
2019-02-21T21:27:44.272Z,102239.69
2019-02-21T21:30:17.667Z,102243.11
2019-02-21T21:32:46.178Z,102242.23
2019-02-21T21:35:14.654Z,102252.09
2019-02-21T21:37:43.179Z,102260.60
2019-02-21T21:40:14.503Z,102253.25
2019-02-21T21:42:42.975Z,102254.46
2019-02-21T21:45:14.369Z,102264.81
2019-02-21T21:47:42.859Z,102265.23
2019-02-21T21:50:13.966Z,102268.23
2019-02-21T21:52:43.868Z,102273.83
2019-02-21T21:55:12.360Z,102276.79
2019-02-21T21:57:40.832Z,102282.38
2019-02-21T22:00:17.895Z,102277.16
2019-02-21T22:02:45.469Z,102282.33
2019-02-21T22:05:13.927Z,102290.09
2019-02-21T22:07:42.377Z,102287.89
2019-02-21T22:10:12.715Z,102299.16
2019-02-21T22:12:41.176Z,102299.95
2019-02-21T22:15:12.739Z,102310.80
2019-02-21T22:17:42.185Z,102315.48
2019-02-21T22:20:10.944Z,102314.59
2019-02-21T22:22:39.399Z,102314.13
2019-02-21T22:25:10.440Z,102311.13
2019-02-21T22:27:38.915Z,102316.31
2019-02-21T22:30:16.462Z,102327.07
2019-02-21T22:32:44.929Z,102319.55
2019-02-21T22:35:13.390Z,102324.31
2019-02-21T22:37:41.872Z,102324.81
2019-02-21T22:40:12.766Z,102330.87
2019-02-21T22:42:41.258Z,102335.63
2019-02-21T22:45:10.377Z,102342.10
2019-02-21T22:47:38.849Z,102338.72
2019-02-21T22:50:19.091Z,102341.69
2019-02-21T22:52:47.589Z,102351.16
2019-02-21T22:55:16.394Z,102354.08
2019-02-21T22:57:44.876Z,102359.25
2019-02-21T23:00:54.392Z,102366.08
2019-02-21T23:03:25.692Z,102367.38
2019-02-21T23:06:12.669Z,102371.25
2019-02-21T23:08:45.130Z,102378.11
2019-02-21T23:11:13.749Z,102369.41
2019-02-21T23:13:42.208Z,102378.79
2019-02-21T23:16:10.698Z,102387.84
2019-02-21T23:18:39.234Z,102383.88
2019-02-21T23:21:07.698Z,102387.20
2019-02-21T23:23:36.193Z,102350.11
2019-02-21T23:26:04.658Z,102382.69
2019-02-21T23:28:33.126Z,102379.63
2019-02-21T23:31:01.620Z,102389.09
2019-02-21T23:33:31.436Z,102384.80
2019-02-21T23:36:00.076Z,102388.27
2019-02-21T23:38:28.559Z,102392.56
2019-02-21T23:40:57.031Z,102398.56
2019-02-21T23:43:25.477Z,102403.23
2019-02-21T23:45:53.991Z,102416.27
2019-02-21T23:48:22.447Z,102414.14
2019-02-21T23:50:50.919Z,102417.05
2019-02-21T23:53:19.418Z,102419.27
2019-02-21T23:55:48.050Z,102423.20
2019-02-21T23:58:16.526Z,102432.25
